Darstellungsparameter: Aktuell verwendete Einstellungen:
Skalierung der Graphiken ... ?
xyx+y,   Skalierungsfaktor:      Skalierung: Modus: x, Faktor: 1
Darstellungszeitraum ... ?
Vom - - bis: - -   Zeitraum: 11.03.2021 - 11.03.2021
Min/Max/Avg-Anzeige ... ?
Zeige MMA aktuell
Zeige MMA Monat
Zeige MMA alles
Zeige --A aktuell
Zeige --A Monat
Zeige --A alles
Keine MMA-Anzeige
MMA:
Minimum Maximum Average (ber die Originaldaten)
MMA-Basis: 14.04.2020 - 16.05.2020
Quicknavigation für Darstellung... ?
Tage:      1T, 2T, 3T, 5T -1T -2T -3T -5T +1T +2T +3T +5T
Wochen: 1W, 2W, 3W -1W -2W -3W +1W +2W +3W
Monate: 1M, 3M, 6M -1M -3M -6M +1M +3M +6M
Jahre:    1J, 3J, 5J, 10J -1J -3J -5J -10J +1J +3J +5J +10J
Nutze für die Darstellung ... ?
Originaldaten oder Mittelwerte auf ...
Stundenbasis Tagesbasis Wochenbasis
Monatsbasis Jahresbasis      Datenbasis: Original-Daten
Darstellen als:
Statistik (Auto) Statistik J:M      Darstellung:
Zur Graphik,    zurück zur Übersicht aller Sensoren.
 
Tabellarische Datenbersicht: ?
 
Sensor: Nr:Datum:Temp:Abs-Feuchte:Windchill:Wind:
Aussen-T/F 1 11-03-2021 00:00:00 6.8 C 6.81 g/m*3 6.8 C 0 km/h
2 11-03-2021 00:05:00 6.7 C 6.84 g/m*3 6.7 C 4.8 km/h
3 11-03-2021 00:10:00 6.7 C 6.84 g/m*3 6.7 C 3.2 km/h
4 11-03-2021 00:15:00 6.6 C 6.79 g/m*3 6.6 C 3.2 km/h
5 11-03-2021 00:20:00 6.5 C 6.75 g/m*3 6.5 C 0 km/h
6 11-03-2021 00:25:00 6.4 C 6.78 g/m*3 6.4 C 0 km/h
7 11-03-2021 00:30:00 6.4 C 6.78 g/m*3 6.4 C 4.8 km/h
8 11-03-2021 00:35:00 6.4 C 6.78 g/m*3 6.4 C 3.2 km/h
9 11-03-2021 00:40:00 6.3 C 6.81 g/m*3 6.3 C 3.2 km/h
10 11-03-2021 00:45:00 6.3 C 6.74 g/m*3 6.3 C 4.8 km/h
11 11-03-2021 00:50:00 6.3 C 6.81 g/m*3 6.3 C 4.8 km/h
12 11-03-2021 00:55:00 6.3 C 6.81 g/m*3 6.3 C 1.6 km/h
13 11-03-2021 01:00:00 6.3 C 6.81 g/m*3 6.3 C 4.8 km/h
14 11-03-2021 01:05:00 6.3 C 6.81 g/m*3 4.64 C 8.1 km/h
15 11-03-2021 01:10:00 6.3 C 6.81 g/m*3 6.3 C 0 km/h
16 11-03-2021 01:15:00 6.3 C 6.81 g/m*3 6.3 C 3.2 km/h
17 11-03-2021 01:20:00 6.3 C 6.81 g/m*3 6.3 C 3.2 km/h
18 11-03-2021 01:25:00 6.3 C 6.81 g/m*3 5.1 C 6.4 km/h
19 11-03-2021 01:30:00 6.3 C 6.81 g/m*3 6.3 C 3.2 km/h
20 11-03-2021 01:35:00 6.3 C 6.81 g/m*3 5.1 C 6.4 km/h
21 11-03-2021 01:40:00 6.4 C 6.85 g/m*3 5.21 C 6.4 km/h
22 11-03-2021 01:45:00 6.4 C 6.85 g/m*3 6.4 C 3.2 km/h
23 11-03-2021 01:50:00 6.4 C 6.85 g/m*3 6.4 C 3.2 km/h
24 11-03-2021 01:55:00 6.4 C 6.85 g/m*3 6.4 C 4.8 km/h
25 11-03-2021 02:00:00 6.4 C 6.85 g/m*3 6.4 C 1.6 km/h
Sensor: Nr:Datum:Temp:Abs-Feuchte:Windchill:Wind:
Aussen-T/F 26 11-03-2021 02:05:00 6.4 C 6.78 g/m*3 4.39 C 9.7 km/h
27 11-03-2021 02:10:00 6.6 C 6.87 g/m*3 4.63 C 9.7 km/h
28 11-03-2021 02:15:00 6.6 C 6.79 g/m*3 4.99 C 8.1 km/h
29 11-03-2021 02:20:00 6.7 C 6.91 g/m*3 6.7 C 4.8 km/h
30 11-03-2021 02:25:00 6.7 C 6.91 g/m*3 5.56 C 6.4 km/h
31 11-03-2021 02:30:00 6.8 C 6.81 g/m*3 4.87 C 9.7 km/h
32 11-03-2021 02:35:00 7 C 6.74 g/m*3 4.53 C 12.9 km/h
33 11-03-2021 02:40:00 7.2 C 6.75 g/m*3 3.75 C 20.9 km/h
34 11-03-2021 02:45:00 7.3 C 6.72 g/m*3 5.16 C 11.3 km/h
35 11-03-2021 02:50:00 7.6 C 6.77 g/m*3 4.81 C 16.1 km/h
36 11-03-2021 02:55:00 7.6 C 6.77 g/m*3 7.6 C 4.8 km/h
37 11-03-2021 03:00:00 7.6 C 6.69 g/m*3 5.53 C 11.3 km/h
38 11-03-2021 03:05:00 7.7 C 6.65 g/m*3 6.28 C 8.1 km/h
39 11-03-2021 03:10:00 7.8 C 6.61 g/m*3 5.51 C 12.9 km/h
40 11-03-2021 03:15:00 7.8 C 6.69 g/m*3 6.83 C 6.4 km/h
41 11-03-2021 03:20:00 7.8 C 6.69 g/m*3 6.83 C 6.4 km/h
42 11-03-2021 03:25:00 7.8 C 6.69 g/m*3 6.06 C 9.7 km/h
43 11-03-2021 03:30:00 7.9 C 6.74 g/m*3 6.94 C 6.4 km/h
44 11-03-2021 03:35:00 7.9 C 6.82 g/m*3 6.18 C 9.7 km/h
45 11-03-2021 03:40:00 7.9 C 6.74 g/m*3 6.52 C 8.1 km/h
46 11-03-2021 03:45:00 7.9 C 6.74 g/m*3 5.63 C 12.9 km/h
47 11-03-2021 03:50:00 8 C 6.78 g/m*3 5.52 C 14.5 km/h
48 11-03-2021 03:55:00 8.1 C 6.82 g/m*3 8.1 C 4.8 km/h
49 11-03-2021 04:00:00 8.1 C 6.82 g/m*3 5.64 C 14.5 km/h
50 11-03-2021 04:05:00 8.1 C 6.82 g/m*3 8.1 C 3.2 km/h
Sensor: Nr:Datum:Temp:Abs-Feuchte:Windchill:Wind:
Aussen-T/F 51 11-03-2021 04:10:00 8.1 C 6.82 g/m*3 5.87 C 12.9 km/h
52 11-03-2021 04:15:00 8.1 C 6.82 g/m*3 7.17 C 6.4 km/h
53 11-03-2021 04:20:00 8.1 C 6.82 g/m*3 6.13 C 11.3 km/h
54 11-03-2021 04:25:00 8.2 C 6.87 g/m*3 5.99 C 12.9 km/h
55 11-03-2021 04:30:00 8.2 C 6.87 g/m*3 5.55 C 16.1 km/h
56 11-03-2021 04:35:00 8.2 C 6.87 g/m*3 5.76 C 14.5 km/h
57 11-03-2021 04:40:00 8.2 C 6.87 g/m*3 5.36 C 17.7 km/h
58 11-03-2021 04:45:00 8.3 C 6.91 g/m*3 4.09 C 33.8 km/h
59 11-03-2021 04:50:00 8.4 C 6.96 g/m*3 4.22 C 33.8 km/h
60 11-03-2021 04:55:00 8.4 C 6.96 g/m*3 5.61 C 17.7 km/h
61 11-03-2021 05:00:00 8.4 C 6.96 g/m*3 5.43 C 19.3 km/h
62 11-03-2021 05:05:00 8.3 C 6.91 g/m*3 5.14 C 20.9 km/h
63 11-03-2021 05:10:00 8.3 C 7 g/m*3 4.7 C 25.7 km/h
64 11-03-2021 05:15:00 8.3 C 7 g/m*3 5.89 C 14.5 km/h
65 11-03-2021 05:20:00 8.3 C 7.08 g/m*3 5.89 C 14.5 km/h
66 11-03-2021 05:25:00 8.3 C 7.08 g/m*3 5.48 C 17.7 km/h
67 11-03-2021 05:30:00 8.4 C 7.13 g/m*3 4.83 C 25.7 km/h
68 11-03-2021 05:35:00 8.4 C 7.13 g/m*3 4.83 C 25.7 km/h
69 11-03-2021 05:40:00 8.3 C 7.08 g/m*3 4.56 C 27.4 km/h
70 11-03-2021 05:45:00 8.3 C 7.16 g/m*3 4.56 C 27.4 km/h
71 11-03-2021 05:50:00 8.3 C 7.16 g/m*3 4.56 C 27.4 km/h
72 11-03-2021 05:55:00 8.3 C 7.25 g/m*3 5.68 C 16.1 km/h
73 11-03-2021 06:00:00 8.3 C 7.25 g/m*3 5.48 C 17.7 km/h
74 11-03-2021 06:05:00 8.2 C 7.2 g/m*3 5.76 C 14.5 km/h
75 11-03-2021 06:10:00 8.2 C 7.29 g/m*3 5.76 C 14.5 km/h
Sensor: Nr:Datum:Temp:Abs-Feuchte:Windchill:Wind:
Aussen-T/F 76 11-03-2021 06:15:00 8.2 C 7.29 g/m*3 5.18 C 19.3 km/h
77 11-03-2021 06:20:00 8.2 C 7.29 g/m*3 5.01 C 20.9 km/h
78 11-03-2021 06:25:00 8.2 C 7.29 g/m*3 5.76 C 14.5 km/h
79 11-03-2021 06:30:00 8.3 C 7.33 g/m*3 5.48 C 17.7 km/h
80 11-03-2021 06:35:00 8.3 C 7.33 g/m*3 5.48 C 17.7 km/h
81 11-03-2021 06:40:00 8.3 C 7.33 g/m*3 6.37 C 11.3 km/h
82 11-03-2021 06:45:00 8.3 C 7.33 g/m*3 6.99 C 8.1 km/h
83 11-03-2021 06:50:00 8.3 C 7.42 g/m*3 5.48 C 17.7 km/h
84 11-03-2021 06:55:00 8.4 C 7.38 g/m*3 6.01 C 14.5 km/h
85 11-03-2021 07:00:00 8.4 C 7.38 g/m*3 6.49 C 11.3 km/h
86 11-03-2021 07:05:00 8.5 C 7.43 g/m*3 6.13 C 14.5 km/h
87 11-03-2021 07:10:00 8.6 C 7.48 g/m*3 6.48 C 12.9 km/h
88 11-03-2021 07:15:00 8.7 C 7.52 g/m*3 5.65 C 20.9 km/h
89 11-03-2021 07:20:00 8.8 C 7.57 g/m*3 6.5 C 14.5 km/h
90 11-03-2021 07:25:00 8.9 C 7.53 g/m*3 6.23 C 17.7 km/h
91 11-03-2021 07:30:00 9 C 7.58 g/m*3 6.03 C 20.9 km/h
92 11-03-2021 07:35:00 9.1 C 7.63 g/m*3 7.33 C 11.3 km/h
93 11-03-2021 07:40:00 9.1 C 7.63 g/m*3 6 C 22.5 km/h
94 11-03-2021 07:45:00 9.1 C 7.63 g/m*3 7.09 C 12.9 km/h
95 11-03-2021 07:50:00 9.2 C 7.68 g/m*3 6.99 C 14.5 km/h
96 11-03-2021 07:55:00 9.2 C 7.68 g/m*3 6.79 C 16.1 km/h
97 11-03-2021 08:00:00 9.3 C 7.73 g/m*3 6.92 C 16.1 km/h
98 11-03-2021 08:05:00 9.4 C 7.78 g/m*3 5.98 C 27.4 km/h
99 11-03-2021 08:10:00 9.5 C 7.83 g/m*3 6.82 C 19.3 km/h
100 11-03-2021 08:15:00 9.6 C 7.88 g/m*3 6.79 C 20.9 km/h
Sensor: Nr:Datum:Temp:Abs-Feuchte:Windchill:Wind:
Aussen-T/F 101 11-03-2021 08:20:00 9.6 C 7.88 g/m*3 6.94 C 19.3 km/h
102 11-03-2021 08:25:00 9.7 C 7.93 g/m*3 6.77 C 22.5 km/h
103 11-03-2021 08:30:00 9.8 C 7.89 g/m*3 7.54 C 16.1 km/h
104 11-03-2021 08:35:00 9.8 C 7.89 g/m*3 7.04 C 20.9 km/h
105 11-03-2021 08:40:00 9.9 C 7.94 g/m*3 7.66 C 16.1 km/h
106 11-03-2021 08:45:00 9.9 C 7.94 g/m*3 7.66 C 16.1 km/h
107 11-03-2021 08:50:00 10 C 7.99 g/m*3 7.01 C 24.1 km/h
108 11-03-2021 08:55:00 10.2 C 8.09 g/m*3 7.27 C 24.1 km/h
109 11-03-2021 09:00:00 10.2 C 8.09 g/m*3 8.03 C 16.1 km/h
110 11-03-2021 09:05:00 10.3 C 8.14 g/m*3 8.16 C 16.1 km/h
111 11-03-2021 09:10:00 10.3 C 8.14 g/m*3 7.82 C 19.3 km/h
112 11-03-2021 09:15:00 10.4 C 8.1 g/m*3 7.95 C 19.3 km/h
113 11-03-2021 09:20:00 10.5 C 8.15 g/m*3 7.19 C 30.6 km/h
114 11-03-2021 09:25:00 10.7 C 8.15 g/m*3 8.18 C 20.9 km/h
115 11-03-2021 09:30:00 10.7 C 8.15 g/m*3 8.18 C 20.9 km/h
116 11-03-2021 09:35:00 10.8 C 8.2 g/m*3 9.16 C 12.9 km/h
117 11-03-2021 09:40:00 10.8 C 8.2 g/m*3 8.96 C 14.5 km/h
118 11-03-2021 09:45:00 10.9 C 8.26 g/m*3 8.9 C 16.1 km/h
119 11-03-2021 09:50:00 11 C 8.31 g/m*3 8.42 C 22.5 km/h
120 11-03-2021 09:55:00 11.1 C 8.36 g/m*3 11.1 C 12.9 km/h
121 11-03-2021 10:00:00 11.1 C 8.36 g/m*3 11.1 C 16.1 km/h
122 11-03-2021 10:05:00 11.2 C 8.41 g/m*3 11.2 C 32.2 km/h
123 11-03-2021 10:10:00 11.4 C 8.42 g/m*3 11.4 C 17.7 km/h
124 11-03-2021 10:15:00 11.5 C 8.47 g/m*3 11.5 C 25.7 km/h
125 11-03-2021 10:20:00 11.6 C 8.52 g/m*3 11.6 C 25.7 km/h
Sensor: Nr:Datum:Temp:Abs-Feuchte:Windchill:Wind:
Aussen-T/F 126 11-03-2021 10:25:00 11.7 C 8.58 g/m*3 11.7 C 17.7 km/h
127 11-03-2021 10:30:00 11.8 C 8.63 g/m*3 11.8 C 19.3 km/h
128 11-03-2021 10:35:00 11.8 C 8.63 g/m*3 11.8 C 19.3 km/h
129 11-03-2021 10:40:00 11.9 C 8.68 g/m*3 11.9 C 16.1 km/h
130 11-03-2021 10:45:00 11.9 C 8.68 g/m*3 11.9 C 25.7 km/h
131 11-03-2021 10:50:00 11.9 C 8.68 g/m*3 11.9 C 19.3 km/h
132 11-03-2021 10:55:00 11.9 C 8.68 g/m*3 11.9 C 17.7 km/h
133 11-03-2021 11:00:00 11.9 C 8.79 g/m*3 11.9 C 19.3 km/h
134 11-03-2021 11:05:00 12 C 8.85 g/m*3 12 C 16.1 km/h
135 11-03-2021 11:10:00 12.1 C 8.9 g/m*3 12.1 C 19.3 km/h
136 11-03-2021 11:15:00 11.9 C 9 g/m*3 11.9 C 24.1 km/h
137 11-03-2021 11:20:00 11.7 C 8.99 g/m*3 11.7 C 17.7 km/h
138 11-03-2021 11:25:00 11.6 C 9.04 g/m*3 11.6 C 14.5 km/h
139 11-03-2021 11:30:00 11.5 C 9.09 g/m*3 11.5 C 11.3 km/h
140 11-03-2021 11:35:00 11.4 C 9.14 g/m*3 11.4 C 6.4 km/h
141 11-03-2021 11:40:00 11.3 C 9.08 g/m*3 11.3 C 8.1 km/h
142 11-03-2021 11:45:00 11.3 C 9.18 g/m*3 11.3 C 4.8 km/h
143 11-03-2021 11:50:00 11.2 C 9.12 g/m*3 11.2 C 12.9 km/h
144 11-03-2021 11:55:00 11.1 C 9.17 g/m*3 11.1 C 11.3 km/h
145 11-03-2021 12:00:00 10.9 C 9.05 g/m*3 9.08 C 14.5 km/h
146 11-03-2021 12:05:00 10.6 C 8.88 g/m*3 8.36 C 17.7 km/h
147 11-03-2021 12:10:00 10.4 C 8.87 g/m*3 8.47 C 14.5 km/h
148 11-03-2021 12:15:00 10.4 C 8.87 g/m*3 8.67 C 12.9 km/h
149 11-03-2021 12:20:00 10.4 C 8.87 g/m*3 9.16 C 9.7 km/h
150 11-03-2021 12:25:00 10.8 C 9.29 g/m*3 9.38 C 11.3 km/h
Sensor: Nr:Datum:Temp:Abs-Feuchte:Windchill:Wind:
Aussen-T/F 151 11-03-2021 12:30:00 10.9 C 9.25 g/m*3 8.9 C 16.1 km/h
152 11-03-2021 12:35:00 10.9 C 9.15 g/m*3 8.9 C 16.1 km/h
153 11-03-2021 12:40:00 11.1 C 9.27 g/m*3 11.1 C 20.9 km/h
154 11-03-2021 12:45:00 11.2 C 9.22 g/m*3 11.2 C 20.9 km/h
155 11-03-2021 12:50:00 11.3 C 9.28 g/m*3 11.3 C 17.7 km/h
156 11-03-2021 12:55:00 11.5 C 9.4 g/m*3 11.5 C 22.5 km/h
157 11-03-2021 13:00:00 11.8 C 9.58 g/m*3 11.8 C 11.3 km/h
158 11-03-2021 13:05:00 12.1 C 9.65 g/m*3 12.1 C 24.1 km/h
159 11-03-2021 13:10:00 12.3 C 9.77 g/m*3 12.3 C 14.5 km/h
160 11-03-2021 13:15:00 12.6 C 9.74 g/m*3 12.6 C 20.9 km/h
161 11-03-2021 13:20:00 12.8 C 9.97 g/m*3 12.8 C 12.9 km/h
162 11-03-2021 13:25:00 13 C 9.64 g/m*3 13 C 14.5 km/h
163 11-03-2021 13:30:00 12.9 C 9.47 g/m*3 12.9 C 19.3 km/h
164 11-03-2021 13:35:00 12.9 C 9.35 g/m*3 12.9 C 24.1 km/h
165 11-03-2021 13:40:00 12.8 C 9.3 g/m*3 12.8 C 12.9 km/h
166 11-03-2021 13:45:00 12.8 C 9.07 g/m*3 12.8 C 25.7 km/h
167 11-03-2021 13:50:00 12.9 C 9.13 g/m*3 12.9 C 24.1 km/h
168 11-03-2021 13:55:00 13 C 9.19 g/m*3 13 C 12.9 km/h
169 11-03-2021 14:00:00 12.9 C 9.13 g/m*3 12.9 C 14.5 km/h
170 11-03-2021 14:05:00 12.2 C 8.31 g/m*3 12.2 C 27.4 km/h
171 11-03-2021 14:10:00 10.7 C 8.15 g/m*3 7.45 C 30.6 km/h
172 11-03-2021 14:15:00 9.8 C 8.07 g/m*3 7.36 C 17.7 km/h
173 11-03-2021 14:20:00 9.6 C 8.15 g/m*3 7.29 C 16.1 km/h
174 11-03-2021 14:25:00 9.6 C 8.34 g/m*3 8.21 C 9.7 km/h
175 11-03-2021 14:30:00 9.7 C 8.48 g/m*3 7.41 C 16.1 km/h
Sensor: Nr:Datum:Temp:Abs-Feuchte:Windchill:Wind:
Aussen-T/F 176 11-03-2021 14:35:00 9.8 C 8.54 g/m*3 7.73 C 14.5 km/h
177 11-03-2021 14:40:00 9.8 C 8.54 g/m*3 8.75 C 8.1 km/h
178 11-03-2021 14:45:00 9.9 C 8.59 g/m*3 9.25 C 6.4 km/h
179 11-03-2021 14:50:00 10.1 C 8.7 g/m*3 6.66 C 30.6 km/h
180 11-03-2021 14:55:00 9.6 C 7.97 g/m*3 5.61 C 37 km/h
181 11-03-2021 15:00:00 9.3 C 7.91 g/m*3 5.62 C 30.6 km/h
182 11-03-2021 15:05:00 9.2 C 8.04 g/m*3 7.21 C 12.9 km/h
183 11-03-2021 15:10:00 9.2 C 8.04 g/m*3 6.28 C 20.9 km/h
184 11-03-2021 15:15:00 9.2 C 8.04 g/m*3 6.44 C 19.3 km/h
185 11-03-2021 15:20:00 9.3 C 8.09 g/m*3 6.56 C 19.3 km/h
186 11-03-2021 15:25:00 9.4 C 8.14 g/m*3 6.86 C 17.7 km/h
187 11-03-2021 15:30:00 9.7 C 8.2 g/m*3 7.23 C 17.7 km/h
188 11-03-2021 15:35:00 9.9 C 8.12 g/m*3 7.02 C 22.5 km/h
189 11-03-2021 15:40:00 10.3 C 8.24 g/m*3 7.82 C 19.3 km/h
190 11-03-2021 15:45:00 10.6 C 8.49 g/m*3 8.71 C 14.5 km/h
191 11-03-2021 15:50:00 10.9 C 8.45 g/m*3 8.73 C 17.7 km/h
192 11-03-2021 15:55:00 11.2 C 8.51 g/m*3 11.2 C 12.9 km/h
193 11-03-2021 16:00:00 11.5 C 8.37 g/m*3 11.5 C 25.7 km/h
194 11-03-2021 16:05:00 11.8 C 8.42 g/m*3 11.8 C 17.7 km/h
195 11-03-2021 16:10:00 12.1 C 8.36 g/m*3 12.1 C 20.9 km/h
196 11-03-2021 16:15:00 12.3 C 8.36 g/m*3 12.3 C 16.1 km/h
197 11-03-2021 16:20:00 12.6 C 8.63 g/m*3 12.6 C 8.1 km/h
198 11-03-2021 16:25:00 12.5 C 8.36 g/m*3 12.5 C 12.9 km/h
199 11-03-2021 16:30:00 12.4 C 8.52 g/m*3 12.4 C 9.7 km/h
200 11-03-2021 16:35:00 12.3 C 8.25 g/m*3 12.3 C 14.5 km/h
Sensor: Nr:Datum:Temp:Abs-Feuchte:Windchill:Wind:
Aussen-T/F 201 11-03-2021 16:40:00 12.2 C 8.09 g/m*3 12.2 C 17.7 km/h
202 11-03-2021 16:45:00 12.1 C 7.94 g/m*3 12.1 C 17.7 km/h
203 11-03-2021 16:50:00 12.1 C 7.83 g/m*3 12.1 C 27.4 km/h
204 11-03-2021 16:55:00 11.9 C 7.52 g/m*3 11.9 C 29 km/h
205 11-03-2021 17:00:00 11.9 C 7.63 g/m*3 11.9 C 22.5 km/h
206 11-03-2021 17:05:00 11.8 C 7.68 g/m*3 11.8 C 20.9 km/h
207 11-03-2021 17:10:00 11.6 C 7.69 g/m*3 11.6 C 27.4 km/h
208 11-03-2021 17:20:00 11.1 C 7.66 g/m*3 11.1 C 30.6 km/h
209 11-03-2021 17:25:00 11.1 C 7.66 g/m*3 11.1 C 17.7 km/h
210 11-03-2021 17:30:00 11.1 C 7.66 g/m*3 11.1 C 12.9 km/h
211 11-03-2021 17:35:00 10.9 C 7.66 g/m*3 9.28 C 12.9 km/h
212 11-03-2021 17:40:00 10.8 C 7.71 g/m*3 9.38 C 11.3 km/h
213 11-03-2021 17:45:00 10.7 C 7.56 g/m*3 9.26 C 11.3 km/h
214 11-03-2021 17:50:00 10.7 C 7.46 g/m*3 8.84 C 14.5 km/h
215 11-03-2021 17:55:00 10.6 C 7.22 g/m*3 8.53 C 16.1 km/h
216 11-03-2021 18:00:00 10.5 C 7.37 g/m*3 8.8 C 12.9 km/h
217 11-03-2021 18:05:00 10.3 C 7.18 g/m*3 8.34 C 14.5 km/h
218 11-03-2021 18:10:00 10.1 C 7.19 g/m*3 8.8 C 9.7 km/h
219 11-03-2021 18:15:00 9.9 C 7.1 g/m*3 8.87 C 8.1 km/h
220 11-03-2021 18:20:00 9.7 C 7.1 g/m*3 8.33 C 9.7 km/h
221 11-03-2021 18:25:00 9.7 C 7.19 g/m*3 8.63 C 8.1 km/h
222 11-03-2021 18:30:00 9.6 C 7.15 g/m*3 9.6 C 4.8 km/h
223 11-03-2021 18:35:00 9.6 C 7.15 g/m*3 7.94 C 11.3 km/h
224 11-03-2021 18:40:00 9.6 C 7.24 g/m*3 6.64 C 22.5 km/h
225 11-03-2021 18:45:00 9.4 C 7.15 g/m*3 6.86 C 17.7 km/h
Sensor: Nr:Datum:Temp:Abs-Feuchte:Windchill:Wind:
Aussen-T/F 226 11-03-2021 18:50:00 9.3 C 7.1 g/m*3 6.73 C 17.7 km/h
227 11-03-2021 18:55:00 9.2 C 6.97 g/m*3 5.72 C 27.4 km/h
228 11-03-2021 19:00:00 9.2 C 6.88 g/m*3 6.13 C 22.5 km/h
229 11-03-2021 19:05:00 9.1 C 6.83 g/m*3 6.31 C 19.3 km/h
230 11-03-2021 19:10:00 8.9 C 6.75 g/m*3 6.62 C 14.5 km/h
231 11-03-2021 19:15:00 8.8 C 6.7 g/m*3 6.5 C 14.5 km/h
232 11-03-2021 19:20:00 8.7 C 6.66 g/m*3 6.17 C 16.1 km/h
233 11-03-2021 19:25:00 8.7 C 6.66 g/m*3 5.65 C 20.9 km/h
234 11-03-2021 19:30:00 8.7 C 6.66 g/m*3 6.85 C 11.3 km/h
235 11-03-2021 19:35:00 8.6 C 6.62 g/m*3 6.48 C 12.9 km/h
236 11-03-2021 19:40:00 8.5 C 6.57 g/m*3 7.22 C 8.1 km/h
237 11-03-2021 19:45:00 8.4 C 6.62 g/m*3 6.24 C 12.9 km/h
238 11-03-2021 19:50:00 8.3 C 6.57 g/m*3 5.89 C 14.5 km/h
239 11-03-2021 19:55:00 8.3 C 6.57 g/m*3 6.37 C 11.3 km/h
240 11-03-2021 20:00:00 8.3 C 6.57 g/m*3 5.31 C 19.3 km/h
241 11-03-2021 20:05:00 8.3 C 6.57 g/m*3 4.84 C 24.1 km/h
242 11-03-2021 20:10:00 8.4 C 6.53 g/m*3 5.11 C 22.5 km/h
243 11-03-2021 20:15:00 8.5 C 6.66 g/m*3 4.95 C 25.7 km/h
244 11-03-2021 20:20:00 8.4 C 6.62 g/m*3 5.11 C 22.5 km/h
245 11-03-2021 20:25:00 8.4 C 6.62 g/m*3 5.8 C 16.1 km/h
246 11-03-2021 20:30:00 8.4 C 6.53 g/m*3 5.61 C 17.7 km/h
247 11-03-2021 20:35:00 8.4 C 6.53 g/m*3 5.43 C 19.3 km/h
248 11-03-2021 20:40:00 8.4 C 6.53 g/m*3 5.8 C 16.1 km/h
249 11-03-2021 20:45:00 8.4 C 6.62 g/m*3 4.96 C 24.1 km/h
250 11-03-2021 20:50:00 8.4 C 6.53 g/m*3 4.44 C 30.6 km/h
Sensor: Nr:Datum:Temp:Abs-Feuchte:Windchill:Wind:
Aussen-T/F 251 11-03-2021 20:55:00 8.3 C 6.57 g/m*3 6.37 C 11.3 km/h
252 11-03-2021 21:00:00 8.3 C 6.57 g/m*3 5.48 C 17.7 km/h
253 11-03-2021 21:05:00 8.2 C 6.53 g/m*3 5.36 C 17.7 km/h
254 11-03-2021 21:10:00 8.2 C 6.53 g/m*3 5.55 C 16.1 km/h
255 11-03-2021 21:15:00 8.1 C 6.49 g/m*3 6.75 C 8.1 km/h
256 11-03-2021 21:20:00 8 C 6.45 g/m*3 6.64 C 8.1 km/h
257 11-03-2021 21:25:00 7.9 C 6.49 g/m*3 5.18 C 16.1 km/h
258 11-03-2021 21:30:00 7.9 C 6.57 g/m*3 5.39 C 14.5 km/h
259 11-03-2021 21:35:00 7.9 C 6.57 g/m*3 6.18 C 9.7 km/h
260 11-03-2021 21:40:00 7.9 C 6.57 g/m*3 5.39 C 14.5 km/h
261 11-03-2021 21:45:00 8 C 6.61 g/m*3 6.01 C 11.3 km/h
262 11-03-2021 21:50:00 8.1 C 6.57 g/m*3 5.64 C 14.5 km/h
263 11-03-2021 21:55:00 8.2 C 6.62 g/m*3 5.18 C 19.3 km/h
264 11-03-2021 22:00:00 8.2 C 6.53 g/m*3 5.55 C 16.1 km/h
265 11-03-2021 22:05:00 8.1 C 6.49 g/m*3 5.23 C 17.7 km/h
266 11-03-2021 22:10:00 8.1 C 6.57 g/m*3 5.43 C 16.1 km/h
267 11-03-2021 22:15:00 7.9 C 6.41 g/m*3 5.63 C 12.9 km/h
268 11-03-2021 22:20:00 7.9 C 6.49 g/m*3 5.89 C 11.3 km/h
269 11-03-2021 22:25:00 7.8 C 6.37 g/m*3 5.77 C 11.3 km/h
270 11-03-2021 22:30:00 7.7 C 6.41 g/m*3 5.94 C 9.7 km/h
271 11-03-2021 22:35:00 7.6 C 6.36 g/m*3 5.26 C 12.9 km/h
272 11-03-2021 22:40:00 7.6 C 6.36 g/m*3 4.61 C 17.7 km/h
273 11-03-2021 22:45:00 7.6 C 6.36 g/m*3 5.53 C 11.3 km/h
274 11-03-2021 22:50:00 7.7 C 6.32 g/m*3 5.65 C 11.3 km/h
275 11-03-2021 22:55:00 7.7 C 6.32 g/m*3 5.38 C 12.9 km/h
Sensor: Nr:Datum:Temp:Abs-Feuchte:Windchill:Wind:
Aussen-T/F 276 11-03-2021 23:00:00 7.8 C 6.37 g/m*3 5.51 C 12.9 km/h
277 11-03-2021 23:05:00 7.8 C 6.37 g/m*3 6.06 C 9.7 km/h
278 11-03-2021 23:10:00 7.9 C 6.41 g/m*3 6.52 C 8.1 km/h
279 11-03-2021 23:15:00 8 C 6.53 g/m*3 5.11 C 17.7 km/h
280 11-03-2021 23:20:00 7.6 C 6.61 g/m*3 4.25 C 20.9 km/h
281 11-03-2021 23:25:00 6.7 C 6.38 g/m*3 1.55 C 40.2 km/h
282 11-03-2021 23:30:00 6.1 C 6.36 g/m*3 1.44 C 30.6 km/h
283 11-03-2021 23:35:00 5.7 C 6.26 g/m*3 1.5 C 24.1 km/h
284 11-03-2021 23:40:00 5.4 C 6.21 g/m*3 1.47 C 20.9 km/h
285 11-03-2021 23:45:00 5.3 C 6.24 g/m*3 2.46 C 12.9 km/h
286 11-03-2021 23:50:00 5.2 C 6.27 g/m*3 2.07 C 14.5 km/h
287 11-03-2021 23:55:00 5.2 C 6.27 g/m*3 1.83 C 16.1 km/h

Legende:
   Min
   Max


Maximal/Minimal-Werte vom 14.04.2020 - 16.05.2020

Sensor Min Max Avg
Temp
(Aussen-T/F)
-0.1 °C
15-04-2020  06:55:00
26.2 °C
17-04-2020  18:05:00
11.98 °C

Die Daten stammen von einer Davis Vantage Pro 2 Wetter-Station und werden unter Linux mit der Software wview2wettercgi und aufbereitet. Alle Angaben erfolgen ohne Gewähr für ihre Vollständigkeit oder Richtigkeit.
Kontakt: Rainer Krienke krienke@uni-koblenz.de . Meine Webseiten an der Uni Koblenz oder privat.
Version: $Revision: 0.78 $